createdAt,value
2016-05-01T00:00:29.700Z,1018.99
2016-05-01T00:01:29.906Z,1018.97
2016-05-01T00:02:29.705Z,1019.05
2016-05-01T00:03:29.723Z,1019.04
2016-05-01T00:04:29.725Z,1019.02
2016-05-01T00:05:29.714Z,1019.08
2016-05-01T00:06:29.920Z,1019.1
2016-05-01T00:07:29.921Z,1019.12
2016-05-01T00:08:29.925Z,1019.11
2016-05-01T00:09:29.927Z,1019.12
2016-05-01T00:10:29.930Z,1019.14
2016-05-01T00:11:29.917Z,1019.11
2016-05-01T00:12:29.919Z,1019.15
2016-05-01T00:13:29.922Z,1019.13
2016-05-01T00:14:29.925Z,1019.11
2016-05-01T00:15:29.927Z,1019.09
2016-05-01T00:16:29.930Z,1019.09
2016-05-01T00:17:29.933Z,1019.11
2016-05-01T00:18:29.935Z,1019.1
2016-05-01T00:19:29.720Z,1019.06
2016-05-01T00:20:29.832Z,1019.1
2016-05-01T00:21:29.725Z,1019.09
2016-05-01T00:22:29.728Z,1019.08
2016-05-01T00:23:29.730Z,1019.12
2016-05-01T00:24:29.936Z,1019.1
2016-05-01T00:25:29.939Z,1019.09
2016-05-01T00:26:29.942Z,1019.09
2016-05-01T00:27:29.725Z,1019.1
2016-05-01T00:28:29.947Z,1019.09
2016-05-01T00:29:29.934Z,1019.11
2016-05-01T00:30:29.937Z,1019.07
2016-05-01T00:31:29.940Z,1019.11
2016-05-01T00:32:29.942Z,1019.09
2016-05-01T00:33:29.945Z,1019.08
2016-05-01T00:34:29.745Z,1019.1
2016-05-01T00:35:29.950Z,1019.09
2016-05-01T00:36:29.937Z,1019.06
2016-05-01T00:37:29.736Z,1019.08
2016-05-01T00:38:29.958Z,1019.11
2016-05-01T00:39:29.945Z,1019.12
2016-05-01T00:40:29.948Z,1019.14
2016-05-01T00:41:29.747Z,1019.08
2016-05-01T00:42:29.953Z,1019.12
2016-05-01T00:43:29.956Z,1019.12
2016-05-01T00:44:29.943Z,1019.09
2016-05-01T00:45:29.946Z,1019.08
2016-05-01T00:46:29.948Z,1019.09
2016-05-01T00:47:29.764Z,1019.1
2016-05-01T00:48:29.751Z,1019.08
2016-05-01T00:49:29.753Z,1019.1
2016-05-01T00:50:29.943Z,1019.15
2016-05-01T00:51:29.962Z,1019.1
2016-05-01T00:52:29.746Z,1019.13
2016-05-01T00:53:29.952Z,1019.15
2016-05-01T00:54:29.954Z,1019.17
2016-05-01T00:55:29.754Z,1019.17
2016-05-01T00:56:29.960Z,1019.2
2016-05-01T00:57:29.963Z,1019.2
2016-05-01T00:58:29.965Z,1019.23
2016-05-01T00:59:29.765Z,1019.21
2016-05-01T01:00:29.751Z,1019.23
2016-05-01T01:01:29.958Z,1019.25
2016-05-01T01:02:29.961Z,1019.24
2016-05-01T01:03:29.963Z,1019.26
2016-05-01T01:04:29.747Z,1019.25
2016-05-01T01:05:29.968Z,1019.23
2016-05-01T01:06:29.752Z,1019.23
2016-05-01T01:07:29.958Z,1019.26
2016-05-01T01:08:29.758Z,1019.23
2016-05-01T01:09:29.963Z,1019.26
2016-05-01T01:10:29.966Z,1019.24
2016-05-01T01:11:29.953Z,1019.29
2016-05-01T01:12:29.955Z,1019.24
2016-05-01T01:13:29.959Z,1019.27
2016-05-01T01:14:29.957Z,1019.25
2016-05-01T01:15:29.960Z,1019.26
2016-05-01T01:16:29.962Z,1019.29
2016-05-01T01:17:29.965Z,1019.28
2016-05-01T01:18:29.765Z,1019.3
2016-05-01T01:19:29.956Z,1019.31
2016-05-01T01:20:29.958Z,1019.33
2016-05-01T01:21:29.961Z,1019.3
2016-05-01T01:22:29.761Z,1019.3
2016-05-01T01:23:29.950Z,1019.33
2016-05-01T01:24:29.750Z,1019.3
2016-05-01T01:25:29.752Z,1019.3
2016-05-01T01:26:29.958Z,1019.33
2016-05-01T01:27:29.774Z,1019.32
2016-05-01T01:28:29.948Z,1019.32
2016-05-01T01:29:29.748Z,1019.29
2016-05-01T01:30:29.750Z,1019.29
2016-05-01T01:31:29.752Z,1019.31
2016-05-01T01:32:29.943Z,1019.28
2016-05-01T01:33:29.946Z,1019.33
2016-05-01T01:34:29.949Z,1019.3
2016-05-01T01:35:29.749Z,1019.34
2016-05-01T01:36:29.955Z,1019.35
2016-05-01T01:37:29.956Z,1019.32
2016-05-01T01:38:29.976Z,1019.35
2016-05-01T01:39:29.946Z,1019.33
2016-05-01T01:40:29.949Z,1019.33
2016-05-01T01:41:29.952Z,1019.34
2016-05-01T01:42:29.939Z,1019.34
2016-05-01T01:43:29.739Z,1019.35
2016-05-01T01:44:29.741Z,1019.35
2016-05-01T01:45:29.947Z,1019.37
2016-05-01T01:46:29.934Z,1019.38
2016-05-01T01:47:29.734Z,1019.41
2016-05-01T01:48:29.736Z,1019.39
2016-05-01T01:49:29.942Z,1019.43
2016-05-01T01:50:29.742Z,1019.43
2016-05-01T01:51:29.931Z,1019.42
2016-05-01T01:52:29.747Z,1019.44
2016-05-01T01:53:29.936Z,1019.44
2016-05-01T01:54:29.737Z,1019.47
2016-05-01T01:55:29.928Z,1019.42
2016-05-01T01:56:29.742Z,1019.46
2016-05-01T01:57:29.932Z,1019.45
2016-05-01T01:58:29.732Z,1019.49
2016-05-01T01:59:29.719Z,1019.48
2016-05-01T02:00:29.925Z,1019.53
2016-05-01T02:01:29.724Z,1019.51
2016-05-01T02:02:29.930Z,1019.51
2016-05-01T02:03:29.933Z,1019.5
2016-05-01T02:04:29.920Z,1019.5
2016-05-01T02:05:29.923Z,1019.53
2016-05-01T02:06:29.925Z,1019.57
2016-05-01T02:07:29.928Z,1019.51
2016-05-01T02:08:29.931Z,1019.55
2016-05-01T02:09:29.715Z,1019.58
2016-05-01T02:10:29.920Z,1019.55
2016-05-01T02:11:29.924Z,1019.54
2016-05-01T02:12:29.909Z,1019.56
2016-05-01T02:13:29.912Z,1019.63
2016-05-01T02:14:29.916Z,1019.64
2016-05-01T02:15:29.918Z,1019.61
2016-05-01T02:16:29.703Z,1019.63
2016-05-01T02:17:29.706Z,1019.67
2016-05-01T02:18:29.708Z,1019.7
2016-05-01T02:19:29.898Z,1019.7
2016-05-01T02:20:29.948Z,1019.75
2016-05-01T02:21:29.903Z,1019.77
2016-05-01T02:22:29.703Z,1019.75
2016-05-01T02:23:29.893Z,1019.78
2016-05-01T02:24:29.895Z,1019.76
2016-05-01T02:25:29.898Z,1019.74
2016-05-01T02:26:29.900Z,1019.79
2016-05-01T02:27:29.685Z,1019.77
2016-05-01T02:28:29.891Z,1019.75
2016-05-01T02:29:29.908Z,1019.79
2016-05-01T02:30:29.896Z,1019.78
2016-05-01T02:31:29.680Z,1019.73
2016-05-01T02:32:29.886Z,1019.74
2016-05-01T02:33:29.888Z,1019.76
2016-05-01T02:34:29.876Z,1019.76
2016-05-01T02:35:29.675Z,1019.76
2016-05-01T02:36:29.881Z,1019.79
2016-05-01T02:37:29.884Z,1019.77
2016-05-01T02:38:29.668Z,1019.77
2016-05-01T02:39:29.671Z,1019.73
2016-05-01T02:40:29.876Z,1019.74
2016-05-01T02:41:29.660Z,1019.72
2016-05-01T02:42:29.866Z,1019.74
2016-05-01T02:43:29.868Z,1019.72
2016-05-01T02:44:29.856Z,1019.75
2016-05-01T02:45:29.655Z,1019.71
2016-05-01T02:46:29.876Z,1019.72
2016-05-01T02:47:29.661Z,1019.74
2016-05-01T02:48:29.866Z,1019.76
2016-05-01T02:49:29.853Z,1019.77
2016-05-01T02:50:29.856Z,1019.77
2016-05-01T02:51:29.843Z,1019.75
2016-05-01T02:52:29.643Z,1019.72
2016-05-01T02:53:29.848Z,1019.71
2016-05-01T02:54:29.648Z,1019.71
2016-05-01T02:55:29.635Z,1019.66
2016-05-01T02:56:29.639Z,1019.67
2016-05-01T02:57:29.641Z,1019.65
2016-05-01T02:58:29.628Z,1019.66
2016-05-01T02:59:29.833Z,1019.64
2016-05-01T03:00:29.821Z,1019.68
2016-05-01T03:01:29.824Z,1019.71
2016-05-01T03:02:29.826Z,1019.65
2016-05-01T03:03:29.829Z,1019.71
2016-05-01T03:04:29.815Z,1019.7
2016-05-01T03:05:29.818Z,1019.71
2016-05-01T03:06:29.821Z,1019.71
2016-05-01T03:07:29.604Z,1019.73
2016-05-01T03:08:29.607Z,1019.74
2016-05-01T03:09:29.813Z,1019.73
2016-05-01T03:10:29.801Z,1019.73
2016-05-01T03:11:29.804Z,1019.75
2016-05-01T03:12:29.807Z,1019.72
2016-05-01T03:13:29.589Z,1019.69
2016-05-01T03:14:29.593Z,1019.71
2016-05-01T03:15:29.782Z,1019.68
2016-05-01T03:16:29.582Z,1019.69
2016-05-01T03:17:29.585Z,1019.72
2016-05-01T03:18:29.775Z,1019.71
2016-05-01T03:19:29.778Z,1019.71
2016-05-01T03:20:29.578Z,1019.68
2016-05-01T03:21:29.767Z,1019.67
2016-05-01T03:22:29.786Z,1019.68
2016-05-01T03:23:29.773Z,1019.66
2016-05-01T03:24:29.572Z,1019.66
2016-05-01T03:25:29.763Z,1019.67
2016-05-01T03:26:29.562Z,1019.67
2016-05-01T03:27:29.753Z,1019.68
2016-05-01T03:28:29.552Z,1019.64
2016-05-01T03:29:29.555Z,1019.62
2016-05-01T03:30:29.745Z,1019.62
2016-05-01T03:31:29.748Z,1019.6
2016-05-01T03:32:29.735Z,1019.59
2016-05-01T03:33:29.535Z,1019.59
2016-05-01T03:34:29.741Z,1019.61
2016-05-01T03:35:29.696Z,1019.59
2016-05-01T03:36:29.746Z,1019.65
2016-05-01T03:37:29.733Z,1019.62
2016-05-01T03:38:29.735Z,1019.64
2016-05-01T03:39:29.722Z,1019.65
2016-05-01T03:40:29.507Z,1019.64
2016-05-01T03:41:29.712Z,1019.67
2016-05-01T03:42:29.512Z,1019.65
2016-05-01T03:43:29.702Z,1019.64
2016-05-01T03:44:29.704Z,1019.66
2016-05-01T03:45:29.707Z,1019.63
2016-05-01T03:46:29.491Z,1019.65
2016-05-01T03:47:29.697Z,1019.64
2016-05-01T03:48:29.481Z,1019.66
2016-05-01T03:49:29.483Z,1019.66
2016-05-01T03:50:29.689Z,1019.67
2016-05-01T03:51:29.676Z,1019.66
2016-05-01T03:52:29.476Z,1019.68
2016-05-01T03:53:29.682Z,1019.72
2016-05-01T03:54:29.670Z,1019.8
2016-05-01T03:55:29.469Z,1019.79
2016-05-01T03:56:29.659Z,1019.86
2016-05-01T03:57:29.662Z,1019.82
2016-05-01T03:58:29.664Z,1019.84
2016-05-01T03:59:29.651Z,1019.84
2016-05-01T04:00:29.450Z,1019.91
2016-05-01T04:01:29.453Z,1019.91
2016-05-01T04:02:29.644Z,1019.93
2016-05-01T04:03:29.443Z,1019.94
2016-05-01T04:04:29.649Z,1019.95
2016-05-01T04:05:29.635Z,1019.92
2016-05-01T04:06:29.623Z,1019.9
2016-05-01T04:07:29.422Z,1019.96
2016-05-01T04:08:29.425Z,1019.95
2016-05-01T04:09:29.412Z,1019.95
2016-05-01T04:10:29.618Z,1020.01
2016-05-01T04:11:29.418Z,1020.03
2016-05-01T04:12:29.405Z,1020.05
2016-05-01T04:13:29.611Z,1020.08
2016-05-01T04:14:29.598Z,1020.12
2016-05-01T04:15:29.601Z,1020.08
2016-05-01T04:16:29.603Z,1020.11
2016-05-01T04:17:29.590Z,1020.11
2016-05-01T04:18:29.390Z,1020.18
2016-05-01T04:19:29.595Z,1020.15
2016-05-01T04:20:29.582Z,1020.18
2016-05-01T04:21:29.570Z,1020.19
2016-05-01T04:22:29.369Z,1020.24
2016-05-01T04:23:29.372Z,1020.19
2016-05-01T04:24:29.561Z,1020.24
2016-05-01T04:25:29.564Z,1020.23
2016-05-01T04:26:29.348Z,1020.23
2016-05-01T04:27:29.555Z,1020.23
2016-05-01T04:28:29.354Z,1020.26
2016-05-01T04:29:29.357Z,1020.27
2016-05-01T04:30:29.547Z,1020.24
2016-05-01T04:31:29.550Z,1020.27
2016-05-01T04:32:29.537Z,1020.29
2016-05-01T04:33:29.336Z,1020.25
2016-05-01T04:34:29.324Z,1020.27
2016-05-01T04:35:29.530Z,1020.34
2016-05-01T04:36:29.516Z,1020.36
2016-05-01T04:37:29.316Z,1020.3
2016-05-01T04:38:29.318Z,1020.35
2016-05-01T04:39:29.305Z,1020.37
2016-05-01T04:40:29.293Z,1020.43
2016-05-01T04:41:29.498Z,1020.35
2016-05-01T04:42:29.501Z,1020.38
2016-05-01T04:43:29.488Z,1020.38
2016-05-01T04:44:29.287Z,1020.37
2016-05-01T04:45:29.274Z,1020.38
2016-05-01T04:46:29.277Z,1020.33
2016-05-01T04:47:29.484Z,1020.3
2016-05-01T04:48:29.471Z,1020.26
2016-05-01T04:49:29.271Z,1020.28
2016-05-01T04:50:29.459Z,1020.32
2016-05-01T04:51:29.463Z,1020.32
2016-05-01T04:52:29.465Z,1020.29
2016-05-01T04:53:29.250Z,1020.28
2016-05-01T04:54:29.456Z,1020.32
2016-05-01T04:55:29.239Z,1020.32
2016-05-01T04:56:29.445Z,1020.31
2016-05-01T04:57:29.228Z,1020.29
2016-05-01T04:58:29.434Z,1020.3
2016-05-01T04:59:29.234Z,1020.31
2016-05-01T05:00:29.424Z,1020.32
2016-05-01T05:01:29.411Z,1020.28
2016-05-01T05:02:29.414Z,1020.31
2016-05-01T05:03:29.417Z,1020.34
2016-05-01T05:04:29.201Z,1020.3
2016-05-01T05:05:29.407Z,1020.34
2016-05-01T05:06:29.410Z,1020.34
2016-05-01T05:07:29.413Z,1020.37
2016-05-01T05:08:29.197Z,1020.35
2016-05-01T05:09:29.183Z,1020.37
2016-05-01T05:10:29.171Z,1020.42
2016-05-01T05:11:29.376Z,1020.45
2016-05-01T05:12:29.379Z,1020.45
2016-05-01T05:13:29.366Z,1020.44
2016-05-01T05:14:29.165Z,1020.51
2016-05-01T05:15:29.168Z,1020.5
2016-05-01T05:16:29.155Z,1020.52
2016-05-01T05:17:29.360Z,1020.53
2016-05-01T05:18:29.348Z,1020.54
2016-05-01T05:19:29.350Z,1020.58
2016-05-01T05:20:29.462Z,1020.55
2016-05-01T05:21:29.137Z,1020.57
2016-05-01T05:22:29.328Z,1020.6
2016-05-01T05:23:29.127Z,1020.57
2016-05-01T05:24:29.115Z,1020.59
2016-05-01T05:25:29.319Z,1020.6
2016-05-01T05:26:29.307Z,1020.59
2016-05-01T05:27:29.107Z,1020.64
2016-05-01T05:28:29.297Z,1020.58
2016-05-01T05:29:29.097Z,1020.59
2016-05-01T05:30:29.302Z,1020.64
2016-05-01T05:31:29.289Z,1020.63
2016-05-01T05:32:29.070Z,1020.61
2016-05-01T05:33:29.278Z,1020.64
2016-05-01T05:34:29.075Z,1020.7
2016-05-01T05:35:29.063Z,1020.73
2016-05-01T05:36:29.271Z,1020.71
2016-05-01T05:37:29.052Z,1020.73
2016-05-01T05:38:29.259Z,1020.76
2016-05-01T05:39:29.246Z,1020.76
2016-05-01T05:40:29.060Z,1020.76
2016-05-01T05:41:29.047Z,1020.78
2016-05-01T05:42:29.238Z,1020.76
2016-05-01T05:43:29.240Z,1020.77
2016-05-01T05:44:29.228Z,1020.79
2016-05-01T05:45:29.230Z,1020.81
2016-05-01T05:46:29.218Z,1020.76
2016-05-01T05:47:29.018Z,1020.75
2016-05-01T05:48:29.004Z,1020.76
2016-05-01T05:49:29.007Z,1020.76
2016-05-01T05:50:28.994Z,1020.77
2016-05-01T05:51:28.997Z,1020.8
2016-05-01T05:52:29.187Z,1020.77
2016-05-01T05:53:29.190Z,1020.82
2016-05-01T05:54:29.176Z,1020.83
2016-05-01T05:55:29.179Z,1020.86
2016-05-01T05:56:29.182Z,1020.85
2016-05-01T05:57:28.965Z,1020.83
2016-05-01T05:58:29.172Z,1020.9
2016-05-01T05:59:29.158Z,1020.95
2016-05-01T06:00:28.942Z,1020.93
2016-05-01T06:01:28.945Z,1020.99
2016-05-01T06:02:28.932Z,1020.96
2016-05-01T06:03:28.950Z,1021.01
2016-05-01T06:04:28.938Z,1021.01
2016-05-01T06:05:29.128Z,1021.07
2016-05-01T06:06:29.131Z,1021.08
2016-05-01T06:07:29.117Z,1021.12
2016-05-01T06:08:29.119Z,1021.13
2016-05-01T06:09:28.905Z,1021.1
2016-05-01T06:10:28.908Z,1021.11
2016-05-01T06:11:29.096Z,1021.14
2016-05-01T06:12:29.119Z,1021.14
2016-05-01T06:13:29.088Z,1021.11
2016-05-01T06:14:28.872Z,1021.15
2016-05-01T06:15:29.078Z,1021.14
2016-05-01T06:16:28.861Z,1021.19
2016-05-01T06:17:28.864Z,1021.18
2016-05-01T06:18:29.069Z,1021.19
2016-05-01T06:19:28.854Z,1021.21
2016-05-01T06:20:29.060Z,1021.2
2016-05-01T06:21:28.844Z,1021.23
2016-05-01T06:22:29.065Z,1021.23
2016-05-01T06:23:29.036Z,1021.21
2016-05-01T06:24:29.039Z,1021.23
2016-05-01T06:25:28.824Z,1021.23
2016-05-01T06:26:28.826Z,1021.25
2016-05-01T06:27:28.813Z,1021.29
2016-05-01T06:28:29.018Z,1021.32
2016-05-01T06:29:29.006Z,1021.28
2016-05-01T06:30:28.993Z,1021.34
2016-05-01T06:31:28.995Z,1021.33
2016-05-01T06:32:28.999Z,1021.4
2016-05-01T06:33:28.985Z,1021.35
2016-05-01T06:34:28.987Z,1021.33
2016-05-01T06:35:29.960Z,1021.34
2016-05-01T06:36:28.759Z,1021.29
2016-05-01T06:37:28.965Z,1021.31
2016-05-01T06:38:28.968Z,1021.3
2016-05-01T06:39:28.954Z,1021.3
2016-05-01T06:40:28.754Z,1021.31
2016-05-01T06:41:28.945Z,1021.29
2016-05-01T06:42:28.729Z,1021.31
2016-05-01T06:43:28.934Z,1021.3
2016-05-01T06:44:28.734Z,1021.32
2016-05-01T06:45:28.924Z,1021.32
2016-05-01T06:46:28.708Z,1021.35
2016-05-01T06:47:28.914Z,1021.35
2016-05-01T06:48:28.713Z,1021.39
2016-05-01T06:49:28.903Z,1021.35
2016-05-01T06:50:28.906Z,1021.34
2016-05-01T06:51:28.922Z,1021.36
2016-05-01T06:52:28.763Z,1021.35
2016-05-01T06:53:28.793Z,1021.35
2016-05-01T06:54:29.041Z,1021.35
2016-05-01T06:55:28.867Z,1021.37
2016-05-01T06:56:29.098Z,1021.43
2016-05-01T06:57:28.913Z,1021.39
2016-05-01T06:58:29.119Z,1021.37
2016-05-01T06:59:29.121Z,1021.34
2016-05-01T07:00:29.140Z,1021.34
2016-05-01T07:01:28.931Z,1021.34
2016-05-01T07:02:29.144Z,1021.32
2016-05-01T07:03:29.135Z,1021.29
2016-05-01T07:04:28.941Z,1021.3
2016-05-01T07:05:29.136Z,1021.35
2016-05-01T07:06:28.924Z,1021.29
2016-05-01T07:07:29.131Z,1021.35
2016-05-01T07:08:28.933Z,1021.33
2016-05-01T07:09:28.922Z,1021.35
2016-05-01T07:10:28.926Z,1021.37
2016-05-01T07:11:29.118Z,1021.36
2016-05-01T07:12:28.902Z,1021.37
2016-05-01T07:13:29.110Z,1021.38
2016-05-01T07:14:28.893Z,1021.36
2016-05-01T07:15:28.897Z,1021.36
2016-05-01T07:16:28.884Z,1021.36
2016-05-01T07:17:29.092Z,1021.31
2016-05-01T07:18:28.875Z,1021.32
2016-05-01T07:19:29.082Z,1021.38
2016-05-01T07:20:29.068Z,1021.33
2016-05-01T07:21:28.869Z,1021.39
2016-05-01T07:22:29.059Z,1021.33
2016-05-01T07:23:29.062Z,1021.36
2016-05-01T07:24:28.846Z,1021.41
2016-05-01T07:25:29.051Z,1021.42
2016-05-01T07:26:29.038Z,1021.39
2016-05-01T07:27:28.837Z,1021.45
2016-05-01T07:28:28.825Z,1021.43
2016-05-01T07:29:29.031Z,1021.4
2016-05-01T07:30:28.815Z,1021.41
2016-05-01T07:31:29.020Z,1021.41
2016-05-01T07:32:29.008Z,1021.38
2016-05-01T07:33:29.011Z,1021.38
2016-05-01T07:34:28.998Z,1021.38
2016-05-01T07:35:28.797Z,1021.35
2016-05-01T07:36:28.987Z,1021.38
2016-05-01T07:37:28.989Z,1021.35
2016-05-01T07:38:28.978Z,1021.35
2016-05-01T07:39:28.980Z,1021.35
2016-05-01T07:40:28.966Z,1021.33
2016-05-01T07:41:28.953Z,1021.35
2016-05-01T07:42:28.753Z,1021.34
2016-05-01T07:43:28.741Z,1021.35
2016-05-01T07:44:28.946Z,1021.36
2016-05-01T07:45:28.949Z,1021.33
2016-05-01T07:46:28.733Z,1021.31
2016-05-01T07:47:28.939Z,1021.31
2016-05-01T07:48:28.722Z,1021.27
2016-05-01T07:49:28.710Z,1021.31
2016-05-01T07:50:28.712Z,1021.34
2016-05-01T07:51:28.699Z,1021.31
2016-05-01T07:52:28.702Z,1021.31
2016-05-01T07:53:28.892Z,1021.3
2016-05-01T07:54:28.895Z,1021.26
2016-05-01T07:55:28.882Z,1021.3
2016-05-01T07:56:28.885Z,1021.33
2016-05-01T07:57:28.684Z,1021.32
2016-05-01T07:58:28.874Z,1021.34
2016-05-01T07:59:28.659Z,1021.34
2016-05-01T08:00:28.865Z,1021.34
2016-05-01T08:01:28.851Z,1021.31
2016-05-01T08:02:28.854Z,1021.31
2016-05-01T08:03:28.637Z,1021.34
2016-05-01T08:04:28.844Z,1021.31
2016-05-01T08:05:28.627Z,1021.34
2016-05-01T08:06:28.834Z,1021.34
2016-05-01T08:07:28.617Z,1021.34
2016-05-01T08:08:28.807Z,1021.37
2016-05-01T08:09:28.811Z,1021.3
2016-05-01T08:10:28.814Z,1021.34
2016-05-01T08:11:28.597Z,1021.31
2016-05-01T08:12:28.600Z,1021.35
2016-05-01T08:13:28.789Z,1021.37
2016-05-01T08:14:28.777Z,1021.37
2016-05-01T08:15:28.779Z,1021.41
2016-05-01T08:16:28.563Z,1021.37
2016-05-01T08:17:28.769Z,1021.36
2016-05-01T08:18:28.757Z,1021.38
2016-05-01T08:19:28.555Z,1021.45
2016-05-01T08:20:28.746Z,1021.37
2016-05-01T08:21:28.546Z,1021.38
2016-05-01T08:22:28.549Z,1021.38
2016-05-01T08:23:28.739Z,1021.33
2016-05-01T08:24:28.523Z,1021.33
2016-05-01T08:25:28.525Z,1021.35
2016-05-01T08:26:28.512Z,1021.35
2016-05-01T08:27:28.499Z,1021.37
2016-05-01T08:28:28.501Z,1021.31
2016-05-01T08:29:28.693Z,1021.32
2016-05-01T08:30:28.696Z,1021.32
2016-05-01T08:31:28.682Z,1021.37
2016-05-01T08:32:28.684Z,1021.4
2016-05-01T08:33:28.673Z,1021.41
2016-05-01T08:34:28.471Z,1021.38
2016-05-01T08:35:28.459Z,1021.4
2016-05-01T08:36:28.665Z,1021.42
2016-05-01T08:37:28.448Z,1021.41
2016-05-01T08:38:28.451Z,1021.44
2016-05-01T08:39:28.642Z,1021.46
2016-05-01T08:40:28.425Z,1021.45
2016-05-01T08:41:28.630Z,1021.47
2016-05-01T08:42:28.415Z,1021.49
2016-05-01T08:43:28.417Z,1021.49
2016-05-01T08:44:28.607Z,1021.53
2016-05-01T08:45:28.610Z,1021.51
2016-05-01T08:46:28.597Z,1021.49
2016-05-01T08:47:28.600Z,1021.49
2016-05-01T08:48:28.400Z,1021.52
2016-05-01T08:49:28.590Z,1021.51
2016-05-01T08:50:28.577Z,1021.54
2016-05-01T08:51:28.376Z,1021.53
2016-05-01T08:52:28.363Z,1021.52
2016-05-01T08:53:28.569Z,1021.53
2016-05-01T08:54:28.556Z,1021.57
2016-05-01T08:55:28.560Z,1021.54
2016-05-01T08:56:28.343Z,1021.62
2016-05-01T08:57:28.345Z,1021.6
2016-05-01T08:58:28.536Z,1021.64
2016-05-01T08:59:28.538Z,1021.65
2016-05-01T09:00:28.323Z,1021.68
2016-05-01T09:01:28.513Z,1021.67
2016-05-01T09:02:28.312Z,1021.65
2016-05-01T09:03:28.517Z,1021.62
2016-05-01T09:04:28.302Z,1021.59
2016-05-01T09:05:28.492Z,1021.62
2016-05-01T09:06:28.292Z,1021.59
2016-05-01T09:07:28.279Z,1021.62
2016-05-01T09:08:28.484Z,1021.63
2016-05-01T09:09:28.472Z,1021.65
2016-05-01T09:10:28.474Z,1021.66
2016-05-01T09:11:28.461Z,1021.65
2016-05-01T09:12:28.464Z,1021.64
2016-05-01T09:13:28.248Z,1021.6
2016-05-01T09:14:28.235Z,1021.63
2016-05-01T09:15:28.441Z,1021.6
2016-05-01T09:16:28.444Z,1021.68
2016-05-01T09:17:28.228Z,1021.68
2016-05-01T09:18:28.214Z,1021.68
2016-05-01T09:19:28.421Z,1021.67
2016-05-01T09:20:28.267Z,1021.73
2016-05-01T09:21:28.208Z,1021.72
2016-05-01T09:22:28.194Z,1021.72
2016-05-01T09:23:28.185Z,1021.74
2016-05-01T09:24:28.188Z,1021.79
2016-05-01T09:25:28.176Z,1021.75
2016-05-01T09:26:28.381Z,1021.76
2016-05-01T09:27:28.369Z,1021.72
2016-05-01T09:28:28.168Z,1021.71
2016-05-01T09:29:28.156Z,1021.73
2016-05-01T09:30:28.159Z,1021.72
2016-05-01T09:31:28.348Z,1021.76
2016-05-01T09:32:28.147Z,1021.72
2016-05-01T09:33:28.135Z,1021.76
2016-05-01T09:34:28.137Z,1021.71
2016-05-01T09:35:28.140Z,1021.75
2016-05-01T09:36:28.315Z,1021.7
2016-05-01T09:37:28.318Z,1021.68
2016-05-01T09:38:28.320Z,1021.72
2016-05-01T09:39:28.308Z,1021.72
2016-05-01T09:40:28.294Z,1021.73
2016-05-01T09:41:28.297Z,1021.74
2016-05-01T09:42:28.283Z,1021.72
2016-05-01T09:43:28.287Z,1021.71
2016-05-01T09:44:28.275Z,1021.71
2016-05-01T09:45:28.277Z,1021.68
2016-05-01T09:46:28.280Z,1021.67
2016-05-01T09:47:28.063Z,1021.65
2016-05-01T09:48:28.050Z,1021.66
2016-05-01T09:49:28.256Z,1021.68
2016-05-01T09:50:28.243Z,1021.64
2016-05-01T09:51:28.043Z,1021.63
2016-05-01T09:52:28.030Z,1021.6
2016-05-01T09:53:28.033Z,1021.63
2016-05-01T09:54:28.019Z,1021.64
2016-05-01T09:55:28.209Z,1021.62
2016-05-01T09:56:28.213Z,1021.65
2016-05-01T09:57:28.199Z,1021.58
2016-05-01T09:58:27.998Z,1021.61
2016-05-01T09:59:28.190Z,1021.57
2016-05-01T10:00:27.990Z,1021.56
2016-05-01T10:01:27.992Z,1021.55
2016-05-01T10:02:27.979Z,1021.54
2016-05-01T10:03:28.168Z,1021.55
2016-05-01T10:04:28.171Z,1021.52
2016-05-01T10:05:28.159Z,1021.52
2016-05-01T10:06:28.161Z,1021.5
2016-05-01T10:07:28.149Z,1021.51
2016-05-01T10:08:28.136Z,1021.53
2016-05-01T10:09:27.934Z,1021.52
2016-05-01T10:10:27.937Z,1021.5
2016-05-01T10:11:28.128Z,1021.51
2016-05-01T10:12:27.928Z,1021.48
2016-05-01T10:13:27.914Z,1021.44
2016-05-01T10:14:28.119Z,1021.39
2016-05-01T10:15:28.108Z,1021.41
2016-05-01T10:16:28.111Z,1021.43
2016-05-01T10:17:28.097Z,1021.44
2016-05-01T10:18:27.881Z,1021.45
2016-05-01T10:19:27.899Z,1021.39
2016-05-01T10:20:28.480Z,1021.41
2016-05-01T10:21:28.077Z,1021.42
2016-05-01T10:22:27.877Z,1021.43
2016-05-01T10:23:27.864Z,1021.44
2016-05-01T10:24:28.069Z,1021.42
2016-05-01T10:25:27.853Z,1021.44
2016-05-01T10:26:28.059Z,1021.43
2016-05-01T10:27:28.046Z,1021.43
2016-05-01T10:28:28.048Z,1021.41
2016-05-01T10:29:27.832Z,1021.37
2016-05-01T10:30:28.038Z,1021.35
2016-05-01T10:31:28.026Z,1021.39
2016-05-01T10:32:27.826Z,1021.4
2016-05-01T10:33:28.015Z,1021.4
2016-05-01T10:34:28.018Z,1021.42
2016-05-01T10:35:28.536Z,1021.4
2016-05-01T10:36:28.007Z,1021.4
2016-05-01T10:37:27.994Z,1021.36
2016-05-01T10:38:28.185Z,1021.35
2016-05-01T10:39:27.985Z,1021.39
2016-05-01T10:40:27.784Z,1021.45
2016-05-01T10:41:27.974Z,1021.41
2016-05-01T10:42:27.977Z,1021.43
2016-05-01T10:43:27.760Z,1021.43
2016-05-01T10:44:27.967Z,1021.43
2016-05-01T10:45:27.970Z,1021.43
2016-05-01T10:46:27.956Z,1021.4
2016-05-01T10:47:27.741Z,1021.4
2016-05-01T10:48:27.946Z,1021.37
2016-05-01T10:49:27.933Z,1021.4
2016-05-01T10:50:27.935Z,1021.4
2016-05-01T10:51:27.922Z,1021.44
2016-05-01T10:52:27.723Z,1021.34
2016-05-01T10:53:27.928Z,1021.36
2016-05-01T10:54:27.916Z,1021.38
2016-05-01T10:55:27.918Z,1021.37
2016-05-01T10:56:27.905Z,1021.36
2016-05-01T10:57:27.907Z,1021.34
2016-05-01T10:58:27.691Z,1021.34
2016-05-01T10:59:27.898Z,1021.36
2016-05-01T11:00:27.681Z,1021.31
2016-05-01T11:01:27.887Z,1021.32
2016-05-01T11:02:27.890Z,1021.28
2016-05-01T11:03:27.877Z,1021.28
2016-05-01T11:04:27.676Z,1021.27
2016-05-01T11:05:27.664Z,1021.24
2016-05-01T11:06:27.870Z,1021.26
2016-05-01T11:07:27.856Z,1021.27
2016-05-01T11:08:27.640Z,1021.31
2016-05-01T11:09:27.846Z,1021.27
2016-05-01T11:10:27.848Z,1021.3
2016-05-01T11:11:27.851Z,1021.28
2016-05-01T11:12:27.839Z,1021.26
2016-05-01T11:13:27.826Z,1021.24
2016-05-01T11:14:27.625Z,1021.32
2016-05-01T11:15:27.816Z,1021.3
2016-05-01T11:16:27.615Z,1021.27
2016-05-01T11:17:27.805Z,1021.27
2016-05-01T11:18:27.808Z,1021.23
2016-05-01T11:19:27.795Z,1021.18
2016-05-01T11:20:27.798Z,1021.17
2016-05-01T11:21:27.800Z,1021.21
2016-05-01T11:22:27.788Z,1021.26
2016-05-01T11:23:27.588Z,1021.25
2016-05-01T11:24:27.574Z,1021.32
2016-05-01T11:25:27.577Z,1021.3
2016-05-01T11:26:27.564Z,1021.26
2016-05-01T11:27:27.566Z,1021.26
2016-05-01T11:28:27.757Z,1021.25
2016-05-01T11:29:27.557Z,1021.27
2016-05-01T11:30:27.544Z,1021.28
2016-05-01T11:31:27.546Z,1021.32
2016-05-01T11:32:27.752Z,1021.29
2016-05-01T11:33:27.535Z,1021.26
2016-05-01T11:34:27.523Z,1021.32
2016-05-01T11:35:27.526Z,1021.26
2016-05-01T11:36:27.732Z,1021.27
2016-05-01T11:37:27.515Z,1021.25
2016-05-01T11:38:27.518Z,1021.24
2016-05-01T11:39:27.709Z,1021.3
2016-05-01T11:40:27.508Z,1021.18
2016-05-01T11:41:27.698Z,1021.22
2016-05-01T11:42:27.701Z,1021.26
2016-05-01T11:43:27.687Z,1021.27
2016-05-01T11:44:27.690Z,1021.25
2016-05-01T11:45:27.677Z,1021.26
2016-05-01T11:46:27.477Z,1021.24
2016-05-01T11:47:27.480Z,1021.17
2016-05-01T11:48:27.670Z,1021.22
2016-05-01T11:49:27.469Z,1021.26
2016-05-01T11:50:27.661Z,1021.29
2016-05-01T11:51:27.663Z,1021.28
2016-05-01T11:52:27.649Z,1021.28
2016-05-01T11:53:27.653Z,1021.24
2016-05-01T11:54:27.452Z,1021.33
2016-05-01T11:55:27.439Z,1021.38
2016-05-01T11:56:27.441Z,1021.34
2016-05-01T11:57:27.632Z,1021.36
2016-05-01T11:58:27.635Z,1021.33
2016-05-01T11:59:27.418Z,1021.3
2016-05-01T12:00:27.624Z,1021.28
2016-05-01T12:01:27.611Z,1021.31
2016-05-01T12:02:27.410Z,1021.35
2016-05-01T12:03:27.398Z,1021.38
2016-05-01T12:04:27.401Z,1021.37
2016-05-01T12:05:28.856Z,1021.34
2016-05-01T12:06:27.593Z,1021.37
2016-05-01T12:07:27.392Z,1021.35